sensor_id;sensor_type;location;lat;lon;timestamp;P1;durP1;ratioP1;P2;durP2;ratioP2
32641;SDS011;19323;56.072;9.698;2022-09-03T00:05:07;0.50;;;0.28;;
32641;SDS011;19323;56.072;9.698;2022-09-03T00:13:20;0.40;;;0.28;;
32641;SDS011;19323;56.072;9.698;2022-09-03T00:15:50;0.20;;;0.20;;
32641;SDS011;19323;56.072;9.698;2022-09-03T00:18:20;0.52;;;0.25;;
32641;SDS011;19323;56.072;9.698;2022-09-03T00:20:53;0.50;;;0.30;;
32641;SDS011;19323;56.072;9.698;2022-09-03T00:23:26;0.40;;;0.30;;
32641;SDS011;19323;56.072;9.698;2022-09-03T00:31:34;0.75;;;0.25;;
32641;SDS011;19323;56.072;9.698;2022-09-03T00:34:06;0.30;;;0.20;;
32641;SDS011;19323;56.072;9.698;2022-09-03T00:36:39;0.30;;;0.30;;
32641;SDS011;19323;56.072;9.698;2022-09-03T00:39:12;0.47;;;0.30;;
32641;SDS011;19323;56.072;9.698;2022-09-03T00:50:08;0.38;;;0.20;;
32641;SDS011;19323;56.072;9.698;2022-09-03T00:55:51;0.15;;;0.13;;
32641;SDS011;19323;56.072;9.698;2022-09-03T01:04:07;1.00;;;0.40;;
32641;SDS011;19323;56.072;9.698;2022-09-03T01:12:18;1.95;;;0.40;;
32641;SDS011;19323;56.072;9.698;2022-09-03T01:15:00;0.20;;;0.20;;
32641;SDS011;19323;56.072;9.698;2022-09-03T01:33:38;0.30;;;0.30;;
32641;SDS011;19323;56.072;9.698;2022-09-03T01:39:10;0.20;;;0.20;;
32641;SDS011;19323;56.072;9.698;2022-09-03T01:41:58;0.40;;;0.20;;
32641;SDS011;19323;56.072;9.698;2022-09-03T01:53:45;0.75;;;0.20;;
32641;SDS011;19323;56.072;9.698;2022-09-03T02:01:34;0.65;;;0.32;;
32641;SDS011;19323;56.072;9.698;2022-09-03T02:04:17;0.60;;;0.22;;
32641;SDS011;19323;56.072;9.698;2022-09-03T02:06:49;1.02;;;0.30;;
32641;SDS011;19323;56.072;9.698;2022-09-03T02:09:17;0.25;;;0.20;;
32641;SDS011;19323;56.072;9.698;2022-09-03T02:11:51;1.55;;;0.30;;
32641;SDS011;19323;56.072;9.698;2022-09-03T02:14:23;0.57;;;0.20;;
32641;SDS011;19323;56.072;9.698;2022-09-03T02:16:50;0.50;;;0.20;;
32641;SDS011;19323;56.072;9.698;2022-09-03T02:19:17;0.75;;;0.20;;
32641;SDS011;19323;56.072;9.698;2022-09-03T02:21:54;0.63;;;0.28;;
32641;SDS011;19323;56.072;9.698;2022-09-03T02:24:22;1.27;;;0.30;;
32641;SDS011;19323;56.072;9.698;2022-09-03T02:26:51;1.27;;;0.75;;
32641;SDS011;19323;56.072;9.698;2022-09-03T02:29:19;0.40;;;0.20;;
32641;SDS011;19323;56.072;9.698;2022-09-03T02:31:46;0.32;;;0.30;;
32641;SDS011;19323;56.072;9.698;2022-09-03T02:34:13;0.90;;;0.32;;
32641;SDS011;19323;56.072;9.698;2022-09-03T02:36:41;0.22;;;0.20;;
32641;SDS011;19323;56.072;9.698;2022-09-03T02:39:11;0.63;;;0.30;;
32641;SDS011;19323;56.072;9.698;2022-09-03T02:41:38;1.65;;;0.30;;
32641;SDS011;19323;56.072;9.698;2022-09-03T02:44:12;1.25;;;0.20;;
32641;SDS011;19323;56.072;9.698;2022-09-03T02:47:01;0.38;;;0.28;;
32641;SDS011;19323;56.072;9.698;2022-09-03T02:49:29;0.10;;;0.10;;
32641;SDS011;19323;56.072;9.698;2022-09-03T02:51:57;0.73;;;0.28;;
32641;SDS011;19323;56.072;9.698;2022-09-03T02:54:26;2.15;;;0.30;;
32641;SDS011;19323;56.072;9.698;2022-09-03T02:56:54;0.38;;;0.30;;
32641;SDS011;19323;56.072;9.698;2022-09-03T02:59:20;0.17;;;0.15;;
32641;SDS011;19323;56.072;9.698;2022-09-03T03:01:47;0.20;;;0.17;;
32641;SDS011;19323;56.072;9.698;2022-09-03T03:04:15;2.50;;;0.20;;
32641;SDS011;19323;56.072;9.698;2022-09-03T03:06:41;0.20;;;0.20;;
32641;SDS011;19323;56.072;9.698;2022-09-03T03:09:12;0.30;;;0.20;;
32641;SDS011;19323;56.072;9.698;2022-09-03T03:11:39;0.55;;;0.30;;
32641;SDS011;19323;56.072;9.698;2022-09-03T03:14:05;0.35;;;0.30;;
32641;SDS011;19323;56.072;9.698;2022-09-03T03:16:32;0.57;;;0.47;;
32641;SDS011;19323;56.072;9.698;2022-09-03T03:18:59;2.83;;;0.60;;
32641;SDS011;19323;56.072;9.698;2022-09-03T03:21:25;0.52;;;0.35;;
32641;SDS011;19323;56.072;9.698;2022-09-03T03:23:52;0.30;;;0.28;;
32641;SDS011;19323;56.072;9.698;2022-09-03T03:26:19;2.97;;;1.02;;
32641;SDS011;19323;56.072;9.698;2022-09-03T03:28:48;0.40;;;0.10;;
32641;SDS011;19323;56.072;9.698;2022-09-03T03:31:21;2.55;;;0.28;;
32641;SDS011;19323;56.072;9.698;2022-09-03T03:33:52;0.40;;;0.20;;
32641;SDS011;19323;56.072;9.698;2022-09-03T03:36:19;0.32;;;0.32;;
32641;SDS011;19323;56.072;9.698;2022-09-03T03:38:47;0.47;;;0.20;;
32641;SDS011;19323;56.072;9.698;2022-09-03T03:43:44;0.60;;;0.20;;
32641;SDS011;19323;56.072;9.698;2022-09-03T03:46:11;0.32;;;0.25;;
32641;SDS011;19323;56.072;9.698;2022-09-03T03:48:38;0.45;;;0.35;;
32641;SDS011;19323;56.072;9.698;2022-09-03T03:51:06;0.90;;;0.30;;
32641;SDS011;19323;56.072;9.698;2022-09-03T03:53:35;0.38;;;0.20;;
32641;SDS011;19323;56.072;9.698;2022-09-03T03:56:04;0.10;;;0.10;;
32641;SDS011;19323;56.072;9.698;2022-09-03T03:58:32;2.25;;;0.20;;
32641;SDS011;19323;56.072;9.698;2022-09-03T04:01:05;0.50;;;0.20;;
32641;SDS011;19323;56.072;9.698;2022-09-03T04:03:36;2.83;;;0.30;;
32641;SDS011;19323;56.072;9.698;2022-09-03T04:06:10;1.25;;;0.13;;
32641;SDS011;19323;56.072;9.698;2022-09-03T04:08:39;0.38;;;0.22;;
32641;SDS011;19323;56.072;9.698;2022-09-03T04:11:08;0.50;;;0.35;;
32641;SDS011;19323;56.072;9.698;2022-09-03T04:13:39;0.30;;;0.28;;
32641;SDS011;19323;56.072;9.698;2022-09-03T04:16:11;0.60;;;0.30;;
32641;SDS011;19323;56.072;9.698;2022-09-03T04:18:43;0.45;;;0.10;;
32641;SDS011;19323;56.072;9.698;2022-09-03T04:21:12;2.00;;;0.30;;
32641;SDS011;19323;56.072;9.698;2022-09-03T04:23:40;2.20;;;0.25;;
32641;SDS011;19323;56.072;9.698;2022-09-03T04:26:09;0.60;;;0.17;;
32641;SDS011;19323;56.072;9.698;2022-09-03T04:28:37;0.50;;;0.10;;
32641;SDS011;19323;56.072;9.698;2022-09-03T04:31:05;1.23;;;0.55;;
32641;SDS011;19323;56.072;9.698;2022-09-03T04:33:34;0.73;;;0.32;;
32641;SDS011;19323;56.072;9.698;2022-09-03T04:38:32;0.90;;;0.43;;
32641;SDS011;19323;56.072;9.698;2022-09-03T04:40:59;1.75;;;0.38;;
32641;SDS011;19323;56.072;9.698;2022-09-03T04:43:27;1.33;;;0.30;;
32641;SDS011;19323;56.072;9.698;2022-09-03T04:46:01;0.20;;;0.20;;
32641;SDS011;19323;56.072;9.698;2022-09-03T04:48:30;0.73;;;0.20;;
32641;SDS011;19323;56.072;9.698;2022-09-03T04:51:03;0.65;;;0.22;;
32641;SDS011;19323;56.072;9.698;2022-09-03T04:53:32;0.68;;;0.20;;
32641;SDS011;19323;56.072;9.698;2022-09-03T04:55:59;2.90;;;0.40;;
32641;SDS011;19323;56.072;9.698;2022-09-03T04:58:26;0.50;;;0.20;;
32641;SDS011;19323;56.072;9.698;2022-09-03T05:00:53;0.35;;;0.28;;
32641;SDS011;19323;56.072;9.698;2022-09-03T05:03:19;0.43;;;0.20;;
32641;SDS011;19323;56.072;9.698;2022-09-03T05:05:50;0.52;;;0.35;;
32641;SDS011;19323;56.072;9.698;2022-09-03T05:08:25;2.05;;;0.40;;
32641;SDS011;19323;56.072;9.698;2022-09-03T05:10:58;5.72;;;0.30;;
32641;SDS011;19323;56.072;9.698;2022-09-03T05:13:25;0.47;;;0.43;;
32641;SDS011;19323;56.072;9.698;2022-09-03T05:16:00;1.75;;;0.30;;
32641;SDS011;19323;56.072;9.698;2022-09-03T05:18:27;1.30;;;0.22;;
32641;SDS011;19323;56.072;9.698;2022-09-03T05:21:01;0.22;;;0.22;;
32641;SDS011;19323;56.072;9.698;2022-09-03T05:23:30;1.65;;;0.22;;
32641;SDS011;19323;56.072;9.698;2022-09-03T05:26:03;1.17;;;0.50;;
32641;SDS011;19323;56.072;9.698;2022-09-03T05:28:37;0.90;;;0.20;;
32641;SDS011;19323;56.072;9.698;2022-09-03T05:31:05;0.80;;;0.28;;
32641;SDS011;19323;56.072;9.698;2022-09-03T05:33:37;0.85;;;0.43;;
32641;SDS011;19323;56.072;9.698;2022-09-03T05:36:10;2.13;;;0.35;;
32641;SDS011;19323;56.072;9.698;2022-09-03T05:38:38;1.20;;;0.40;;
32641;SDS011;19323;56.072;9.698;2022-09-03T05:41:05;0.55;;;0.30;;
32641;SDS011;19323;56.072;9.698;2022-09-03T05:43:34;0.68;;;0.20;;
32641;SDS011;19323;56.072;9.698;2022-09-03T05:46:01;0.82;;;0.68;;
32641;SDS011;19323;56.072;9.698;2022-09-03T05:48:30;0.68;;;0.20;;
32641;SDS011;19323;56.072;9.698;2022-09-03T05:51:02;0.75;;;0.20;;
32641;SDS011;19323;56.072;9.698;2022-09-03T05:53:31;3.10;;;0.28;;
32641;SDS011;19323;56.072;9.698;2022-09-03T05:56:00;0.88;;;0.30;;
32641;SDS011;19323;56.072;9.698;2022-09-03T05:58:33;0.75;;;0.35;;
32641;SDS011;19323;56.072;9.698;2022-09-03T06:03:39;2.83;;;0.80;;
32641;SDS011;19323;56.072;9.698;2022-09-03T06:06:06;0.40;;;0.30;;
32641;SDS011;19323;56.072;9.698;2022-09-03T06:08:33;1.25;;;0.20;;
32641;SDS011;19323;56.072;9.698;2022-09-03T06:11:03;1.52;;;0.40;;
32641;SDS011;19323;56.072;9.698;2022-09-03T06:13:30;2.88;;;0.40;;
32641;SDS011;19323;56.072;9.698;2022-09-03T06:15:58;0.57;;;0.20;;
32641;SDS011;19323;56.072;9.698;2022-09-03T06:18:26;0.65;;;0.22;;
32641;SDS011;19323;56.072;9.698;2022-09-03T06:20:57;1.50;;;0.30;;
32641;SDS011;19323;56.072;9.698;2022-09-03T06:23:28;0.65;;;0.20;;
32641;SDS011;19323;56.072;9.698;2022-09-03T06:25:59;0.85;;;0.45;;
32641;SDS011;19323;56.072;9.698;2022-09-03T06:28:31;0.70;;;0.20;;
32641;SDS011;19323;56.072;9.698;2022-09-03T06:31:00;1.60;;;0.40;;
32641;SDS011;19323;56.072;9.698;2022-09-03T06:33:28;2.10;;;0.65;;
32641;SDS011;19323;56.072;9.698;2022-09-03T06:35:57;1.17;;;0.30;;
32641;SDS011;19323;56.072;9.698;2022-09-03T06:38:25;2.03;;;0.38;;
32641;SDS011;19323;56.072;9.698;2022-09-03T06:40:54;2.60;;;0.20;;
32641;SDS011;19323;56.072;9.698;2022-09-03T06:43:22;3.97;;;0.25;;
32641;SDS011;19323;56.072;9.698;2022-09-03T06:45:53;0.77;;;0.30;;
32641;SDS011;19323;56.072;9.698;2022-09-03T06:48:24;2.20;;;0.43;;
32641;SDS011;19323;56.072;9.698;2022-09-03T06:53:22;8.65;;;4.90;;
32641;SDS011;19323;56.072;9.698;2022-09-03T06:56:01;4.63;;;3.20;;
32641;SDS011;19323;56.072;9.698;2022-09-03T06:58:36;5.90;;;2.38;;
32641;SDS011;19323;56.072;9.698;2022-09-03T07:01:18;5.03;;;2.50;;
32641;SDS011;19323;56.072;9.698;2022-09-03T07:03:46;3.00;;;1.45;;
32641;SDS011;19323;56.072;9.698;2022-09-03T07:06:17;1.63;;;1.35;;
32641;SDS011;19323;56.072;9.698;2022-09-03T07:08:45;3.92;;;1.38;;
32641;SDS011;19323;56.072;9.698;2022-09-03T07:11:15;2.00;;;1.10;;
32641;SDS011;19323;56.072;9.698;2022-09-03T07:13:45;2.40;;;1.00;;
32641;SDS011;19323;56.072;9.698;2022-09-03T07:16:14;4.60;;;1.20;;
32641;SDS011;19323;56.072;9.698;2022-09-03T07:18:45;1.67;;;0.65;;
32641;SDS011;19323;56.072;9.698;2022-09-03T07:21:13;2.00;;;1.10;;
32641;SDS011;19323;56.072;9.698;2022-09-03T07:23:42;3.05;;;0.80;;
32641;SDS011;19323;56.072;9.698;2022-09-03T07:26:10;5.63;;;0.65;;
32641;SDS011;19323;56.072;9.698;2022-09-03T07:28:39;2.90;;;0.50;;
32641;SDS011;19323;56.072;9.698;2022-09-03T07:31:09;2.50;;;0.73;;
32641;SDS011;19323;56.072;9.698;2022-09-03T07:33:38;6.35;;;1.25;;
32641;SDS011;19323;56.072;9.698;2022-09-03T07:36:12;3.22;;;0.73;;
32641;SDS011;19323;56.072;9.698;2022-09-03T07:38:42;2.67;;;0.70;;
32641;SDS011;19323;56.072;9.698;2022-09-03T07:41:10;6.00;;;1.00;;
32641;SDS011;19323;56.072;9.698;2022-09-03T07:43:53;1.50;;;0.80;;
32641;SDS011;19323;56.072;9.698;2022-09-03T07:46:20;8.02;;;1.00;;
32641;SDS011;19323;56.072;9.698;2022-09-03T07:48:49;2.17;;;0.30;;
32641;SDS011;19323;56.072;9.698;2022-09-03T07:51:16;1.90;;;0.35;;
32641;SDS011;19323;56.072;9.698;2022-09-03T07:53:44;0.60;;;0.20;;
32641;SDS011;19323;56.072;9.698;2022-09-03T07:56:11;2.85;;;0.70;;
32641;SDS011;19323;56.072;9.698;2022-09-03T07:58:41;1.60;;;0.60;;
32641;SDS011;19323;56.072;9.698;2022-09-03T08:01:09;1.13;;;0.55;;
32641;SDS011;19323;56.072;9.698;2022-09-03T08:03:43;3.85;;;0.82;;
32641;SDS011;19323;56.072;9.698;2022-09-03T08:06:13;6.07;;;0.95;;
32641;SDS011;19323;56.072;9.698;2022-09-03T08:08:41;10.68;;;3.53;;
32641;SDS011;19323;56.072;9.698;2022-09-03T08:11:13;16.00;;;6.22;;
32641;SDS011;19323;56.072;9.698;2022-09-03T08:13:43;14.63;;;5.15;;
32641;SDS011;19323;56.072;9.698;2022-09-03T08:16:15;11.80;;;3.28;;
32641;SDS011;19323;56.072;9.698;2022-09-03T08:18:46;6.80;;;2.92;;
32641;SDS011;19323;56.072;9.698;2022-09-03T08:21:13;10.30;;;3.10;;
32641;SDS011;19323;56.072;9.698;2022-09-03T08:23:42;7.53;;;3.28;;
32641;SDS011;19323;56.072;9.698;2022-09-03T08:26:10;6.07;;;2.33;;
32641;SDS011;19323;56.072;9.698;2022-09-03T08:28:38;7.15;;;3.55;;
32641;SDS011;19323;56.072;9.698;2022-09-03T08:31:06;7.88;;;2.80;;
32641;SDS011;19323;56.072;9.698;2022-09-03T08:33:40;6.03;;;3.10;;
32641;SDS011;19323;56.072;9.698;2022-09-03T08:36:10;6.68;;;2.65;;
32641;SDS011;19323;56.072;9.698;2022-09-03T08:38:42;4.45;;;2.83;;
32641;SDS011;19323;56.072;9.698;2022-09-03T08:41:14;4.68;;;1.83;;
32641;SDS011;19323;56.072;9.698;2022-09-03T08:46:40;3.55;;;1.67;;
32641;SDS011;19323;56.072;9.698;2022-09-03T08:49:10;2.53;;;1.70;;
32641;SDS011;19323;56.072;9.698;2022-09-03T08:51:40;3.30;;;1.35;;
32641;SDS011;19323;56.072;9.698;2022-09-03T08:54:10;6.10;;;2.38;;
32641;SDS011;19323;56.072;9.698;2022-09-03T08:56:38;5.07;;;1.35;;
32641;SDS011;19323;56.072;9.698;2022-09-03T08:59:08;3.13;;;1.60;;
32641;SDS011;19323;56.072;9.698;2022-09-03T09:06:51;3.78;;;1.42;;
32641;SDS011;19323;56.072;9.698;2022-09-03T09:12:20;6.10;;;1.15;;
32641;SDS011;19323;56.072;9.698;2022-09-03T09:20:47;4.35;;;0.88;;
32641;SDS011;19323;56.072;9.698;2022-09-03T09:23:28;2.78;;;0.60;;
32641;SDS011;19323;56.072;9.698;2022-09-03T09:25:58;5.75;;;0.90;;
32641;SDS011;19323;56.072;9.698;2022-09-03T09:28:34;3.83;;;0.80;;
32641;SDS011;19323;56.072;9.698;2022-09-03T09:31:03;3.60;;;0.85;;
32641;SDS011;19323;56.072;9.698;2022-09-03T09:33:37;3.72;;;0.88;;
32641;SDS011;19323;56.072;9.698;2022-09-03T09:36:05;4.35;;;1.42;;
32641;SDS011;19323;56.072;9.698;2022-09-03T09:38:35;3.38;;;0.70;;
32641;SDS011;19323;56.072;9.698;2022-09-03T09:41:21;10.00;;;1.15;;
32641;SDS011;19323;56.072;9.698;2022-09-03T09:43:58;3.35;;;0.70;;
32641;SDS011;19323;56.072;9.698;2022-09-03T09:46:36;4.45;;;0.68;;
32641;SDS011;19323;56.072;9.698;2022-09-03T09:49:25;5.72;;;0.75;;
32641;SDS011;19323;56.072;9.698;2022-09-03T09:52:30;3.13;;;0.70;;
32641;SDS011;19323;56.072;9.698;2022-09-03T09:54:52;3.58;;;0.90;;
32641;SDS011;19323;56.072;9.698;2022-09-03T09:57:32;4.45;;;0.60;;
32641;SDS011;19323;56.072;9.698;2022-09-03T10:00:17;2.72;;;0.38;;
32641;SDS011;19323;56.072;9.698;2022-09-03T10:02:47;2.13;;;0.85;;
32641;SDS011;19323;56.072;9.698;2022-09-03T10:05:20;4.03;;;2.17;;
32641;SDS011;19323;56.072;9.698;2022-09-03T10:07:54;11.82;;;2.60;;
32641;SDS011;19323;56.072;9.698;2022-09-03T10:10:21;7.22;;;2.35;;
32641;SDS011;19323;56.072;9.698;2022-09-03T10:13:05;7.57;;;2.25;;
32641;SDS011;19323;56.072;9.698;2022-09-03T10:26:48;19.52;;;3.95;;
32641;SDS011;19323;56.072;9.698;2022-09-03T10:29:16;12.82;;;3.58;;
32641;SDS011;19323;56.072;9.698;2022-09-03T10:37:48;11.25;;;2.67;;
32641;SDS011;19323;56.072;9.698;2022-09-03T10:51:14;6.78;;;1.73;;
32641;SDS011;19323;56.072;9.698;2022-09-03T11:02:14;6.30;;;1.85;;
32641;SDS011;19323;56.072;9.698;2022-09-03T11:07:30;4.47;;;1.73;;
32641;SDS011;19323;56.072;9.698;2022-09-03T11:10:17;3.80;;;1.50;;
32641;SDS011;19323;56.072;9.698;2022-09-03T11:15:32;2.97;;;1.17;;
32641;SDS011;19323;56.072;9.698;2022-09-03T11:18:19;5.25;;;1.10;;
32641;SDS011;19323;56.072;9.698;2022-09-03T11:20:52;2.17;;;1.08;;
32641;SDS011;19323;56.072;9.698;2022-09-03T11:23:23;2.22;;;0.80;;
32641;SDS011;19323;56.072;9.698;2022-09-03T11:25:55;2.40;;;0.90;;
32641;SDS011;19323;56.072;9.698;2022-09-03T11:36:31;3.38;;;1.13;;
32641;SDS011;19323;56.072;9.698;2022-09-03T11:38:59;1.50;;;0.80;;
32641;SDS011;19323;56.072;9.698;2022-09-03T11:41:26;1.40;;;0.70;;
32641;SDS011;19323;56.072;9.698;2022-09-03T11:44:10;1.83;;;0.95;;
32641;SDS011;19323;56.072;9.698;2022-09-03T11:46:56;3.97;;;0.45;;
32641;SDS011;19323;56.072;9.698;2022-09-03T11:49:28;2.30;;;0.77;;
32641;SDS011;19323;56.072;9.698;2022-09-03T11:51:59;2.30;;;0.60;;
32641;SDS011;19323;56.072;9.698;2022-09-03T11:54:41;6.80;;;1.17;;
32641;SDS011;19323;56.072;9.698;2022-09-03T11:57:14;6.70;;;1.75;;
32641;SDS011;19323;56.072;9.698;2022-09-03T11:59:46;4.38;;;1.13;;
32641;SDS011;19323;56.072;9.698;2022-09-03T12:10:30;1.45;;;0.90;;
32641;SDS011;19323;56.072;9.698;2022-09-03T12:15:53;2.20;;;0.70;;
32641;SDS011;19323;56.072;9.698;2022-09-03T12:18:34;1.27;;;0.60;;
32641;SDS011;19323;56.072;9.698;2022-09-03T12:21:03;1.83;;;0.40;;
32641;SDS011;19323;56.072;9.698;2022-09-03T12:23:39;1.35;;;0.40;;
32641;SDS011;19323;56.072;9.698;2022-09-03T12:26:08;0.95;;;0.30;;
32641;SDS011;19323;56.072;9.698;2022-09-03T12:28:41;0.40;;;0.20;;
32641;SDS011;19323;56.072;9.698;2022-09-03T12:31:14;0.47;;;0.10;;
32641;SDS011;19323;56.072;9.698;2022-09-03T12:34:11;0.30;;;0.17;;
32641;SDS011;19323;56.072;9.698;2022-09-03T12:36:41;1.35;;;0.25;;
32641;SDS011;19323;56.072;9.698;2022-09-03T12:39:12;0.52;;;0.20;;
32641;SDS011;19323;56.072;9.698;2022-09-03T12:42:06;1.30;;;0.10;;
32641;SDS011;19323;56.072;9.698;2022-09-03T12:44:38;1.45;;;0.30;;
32641;SDS011;19323;56.072;9.698;2022-09-03T12:47:10;0.65;;;0.10;;
32641;SDS011;19323;56.072;9.698;2022-09-03T12:50:04;2.15;;;0.20;;
32641;SDS011;19323;56.072;9.698;2022-09-03T12:52:35;0.93;;;0.25;;
32641;SDS011;19323;56.072;9.698;2022-09-03T12:57:38;0.90;;;0.38;;
32641;SDS011;19323;56.072;9.698;2022-09-03T13:00:09;1.38;;;0.15;;
32641;SDS011;19323;56.072;9.698;2022-09-03T13:05:24;0.20;;;0.10;;
32641;SDS011;19323;56.072;9.698;2022-09-03T13:08:12;1.13;;;0.20;;
32641;SDS011;19323;56.072;9.698;2022-09-03T13:10:43;1.75;;;0.93;;
32641;SDS011;19323;56.072;9.698;2022-09-03T13:18:43;1.10;;;0.10;;
32641;SDS011;19323;56.072;9.698;2022-09-03T13:29:23;0.80;;;0.15;;
32641;SDS011;19323;56.072;9.698;2022-09-03T13:31:52;0.37;;;0.10;;
32641;SDS011;19323;56.072;9.698;2022-09-03T13:34:35;1.52;;;0.20;;
32641;SDS011;19323;56.072;9.698;2022-09-03T13:39:56;0.75;;;0.20;;
32641;SDS011;19323;56.072;9.698;2022-09-03T13:42:26;1.85;;;0.10;;
32641;SDS011;19323;56.072;9.698;2022-09-03T13:45:22;0.55;;;0.10;;
32641;SDS011;19323;56.072;9.698;2022-09-03T13:47:57;2.53;;;0.30;;
32641;SDS011;19323;56.072;9.698;2022-09-03T13:50:52;0.40;;;0.10;;
32641;SDS011;19323;56.072;9.698;2022-09-03T13:53:31;0.57;;;0.10;;
32641;SDS011;19323;56.072;9.698;2022-09-03T14:10:49;1.13;;;0.10;;
32641;SDS011;19323;56.072;9.698;2022-09-03T14:16:09;1.33;;;0.50;;
32641;SDS011;19323;56.072;9.698;2022-09-03T14:19:41;5.20;;;0.40;;
32641;SDS011;19323;56.072;9.698;2022-09-03T14:25:01;0.60;;;0.20;;
32641;SDS011;19323;56.072;9.698;2022-09-03T14:27:31;0.88;;;0.20;;
32641;SDS011;19323;56.072;9.698;2022-09-03T14:30:05;1.00;;;0.20;;
32641;SDS011;19323;56.072;9.698;2022-09-03T14:42:02;3.03;;;0.10;;
32641;SDS011;19323;56.072;9.698;2022-09-03T15:01:05;2.65;;;0.65;;
32641;SDS011;19323;56.072;9.698;2022-09-03T15:11:57;1.98;;;0.20;;
32641;SDS011;19323;56.072;9.698;2022-09-03T15:14:34;0.45;;;0.20;;
32641;SDS011;19323;56.072;9.698;2022-09-03T15:20:20;1.45;;;0.43;;
32641;SDS011;19323;56.072;9.698;2022-09-03T15:23:15;1.25;;;0.50;;
32641;SDS011;19323;56.072;9.698;2022-09-03T15:36:48;0.95;;;0.30;;
32641;SDS011;19323;56.072;9.698;2022-09-03T15:42:03;0.50;;;0.15;;
32641;SDS011;19323;56.072;9.698;2022-09-03T15:44:44;1.42;;;0.40;;
32641;SDS011;19323;56.072;9.698;2022-09-03T15:53:14;11.48;;;4.30;;
32641;SDS011;19323;56.072;9.698;2022-09-03T15:56:02;10.45;;;5.05;;
32641;SDS011;19323;56.072;9.698;2022-09-03T15:58:47;14.13;;;7.95;;
32641;SDS011;19323;56.072;9.698;2022-09-03T16:04:34;21.02;;;13.63;;
32641;SDS011;19323;56.072;9.698;2022-09-03T16:07:25;24.90;;;12.63;;
32641;SDS011;19323;56.072;9.698;2022-09-03T16:10:04;27.00;;;11.88;;
32641;SDS011;19323;56.072;9.698;2022-09-03T16:15:50;13.55;;;8.77;;
32641;SDS011;19323;56.072;9.698;2022-09-03T16:18:31;12.48;;;8.52;;
32641;SDS011;19323;56.072;9.698;2022-09-03T16:21:07;13.23;;;7.78;;
32641;SDS011;19323;56.072;9.698;2022-09-03T16:23:44;11.63;;;6.75;;
32641;SDS011;19323;56.072;9.698;2022-09-03T16:29:14;12.02;;;6.75;;
32641;SDS011;19323;56.072;9.698;2022-09-03T16:34:44;11.18;;;5.72;;
32641;SDS011;19323;56.072;9.698;2022-09-03T16:51:34;8.93;;;3.72;;
32641;SDS011;19323;56.072;9.698;2022-09-03T16:54:34;6.15;;;3.28;;
32641;SDS011;19323;56.072;9.698;2022-09-03T16:57:30;6.55;;;2.92;;
32641;SDS011;19323;56.072;9.698;2022-09-03T17:00:14;4.53;;;2.38;;
32641;SDS011;19323;56.072;9.698;2022-09-03T17:08:49;2.53;;;1.88;;
32641;SDS011;19323;56.072;9.698;2022-09-03T17:14:46;3.63;;;2.53;;
32641;SDS011;19323;56.072;9.698;2022-09-03T17:17:31;4.03;;;2.70;;
32641;SDS011;19323;56.072;9.698;2022-09-03T17:20:21;2.67;;;2.08;;
32641;SDS011;19323;56.072;9.698;2022-09-03T17:26:20;1.83;;;1.50;;
32641;SDS011;19323;56.072;9.698;2022-09-03T17:32:26;1.95;;;1.40;;
32641;SDS011;19323;56.072;9.698;2022-09-03T17:41:13;1.40;;;0.77;;
32641;SDS011;19323;56.072;9.698;2022-09-03T17:55:12;5.68;;;1.20;;
32641;SDS011;19323;56.072;9.698;2022-09-03T17:57:49;1.95;;;0.73;;
32641;SDS011;19323;56.072;9.698;2022-09-03T18:06:03;2.20;;;0.88;;
32641;SDS011;19323;56.072;9.698;2022-09-03T18:11:45;2.35;;;0.50;;
32641;SDS011;19323;56.072;9.698;2022-09-03T18:14:34;2.50;;;0.60;;
32641;SDS011;19323;56.072;9.698;2022-09-03T18:17:09;2.60;;;0.40;;
32641;SDS011;19323;56.072;9.698;2022-09-03T18:19:58;3.88;;;0.60;;
32641;SDS011;19323;56.072;9.698;2022-09-03T18:23:04;2.47;;;0.70;;
32641;SDS011;19323;56.072;9.698;2022-09-03T18:25:55;1.70;;;0.30;;
32641;SDS011;19323;56.072;9.698;2022-09-03T18:31:37;2.03;;;0.52;;
32641;SDS011;19323;56.072;9.698;2022-09-03T18:34:28;2.08;;;0.70;;
32641;SDS011;19323;56.072;9.698;2022-09-03T18:37:19;1.05;;;0.85;;
32641;SDS011;19323;56.072;9.698;2022-09-03T18:40:08;1.92;;;0.30;;
32641;SDS011;19323;56.072;9.698;2022-09-03T18:43:13;1.00;;;0.40;;
32641;SDS011;19323;56.072;9.698;2022-09-03T18:46:15;0.50;;;0.22;;
32641;SDS011;19323;56.072;9.698;2022-09-03T18:49:44;0.98;;;0.40;;
32641;SDS011;19323;56.072;9.698;2022-09-03T18:55:45;0.60;;;0.38;;
32641;SDS011;19323;56.072;9.698;2022-09-03T18:59:17;2.05;;;0.47;;
32641;SDS011;19323;56.072;9.698;2022-09-03T19:02:06;0.55;;;0.35;;
32641;SDS011;19323;56.072;9.698;2022-09-03T19:05:14;0.77;;;0.40;;
32641;SDS011;19323;56.072;9.698;2022-09-03T19:08:51;1.42;;;0.30;;
32641;SDS011;19323;56.072;9.698;2022-09-03T19:11:24;0.77;;;0.30;;
32641;SDS011;19323;56.072;9.698;2022-09-03T19:20:47;3.40;;;0.28;;
32641;SDS011;19323;56.072;9.698;2022-09-03T19:23:42;1.23;;;0.40;;
32641;SDS011;19323;56.072;9.698;2022-09-03T19:26:37;0.85;;;0.40;;
32641;SDS011;19323;56.072;9.698;2022-09-03T19:32:56;1.35;;;0.50;;
32641;SDS011;19323;56.072;9.698;2022-09-03T19:39:21;0.98;;;0.40;;
32641;SDS011;19323;56.072;9.698;2022-09-03T19:48:33;1.23;;;0.40;;
32641;SDS011;19323;56.072;9.698;2022-09-03T19:54:30;2.00;;;0.50;;
32641;SDS011;19323;56.072;9.698;2022-09-03T19:57:16;0.65;;;0.30;;
32641;SDS011;19323;56.072;9.698;2022-09-03T20:00:03;1.40;;;0.30;;
32641;SDS011;19323;56.072;9.698;2022-09-03T20:02:57;1.08;;;0.40;;
32641;SDS011;19323;56.072;9.698;2022-09-03T20:05:43;0.80;;;0.25;;
32641;SDS011;19323;56.072;9.698;2022-09-03T20:08:36;0.30;;;0.30;;
32641;SDS011;19323;56.072;9.698;2022-09-03T20:11:21;6.07;;;0.80;;
32641;SDS011;19323;56.072;9.698;2022-09-03T20:13:50;0.70;;;0.40;;
32641;SDS011;19323;56.072;9.698;2022-09-03T20:24:35;1.08;;;0.50;;
32641;SDS011;19323;56.072;9.698;2022-09-03T20:27:32;0.68;;;0.35;;
32641;SDS011;19323;56.072;9.698;2022-09-03T20:30:37;0.98;;;0.77;;
32641;SDS011;19323;56.072;9.698;2022-09-03T20:35:39;0.52;;;0.40;;
32641;SDS011;19323;56.072;9.698;2022-09-03T20:38:42;0.85;;;0.43;;
32641;SDS011;19323;56.072;9.698;2022-09-03T20:59:31;2.35;;;0.65;;
32641;SDS011;19323;56.072;9.698;2022-09-03T21:02:09;0.82;;;0.47;;
32641;SDS011;19323;56.072;9.698;2022-09-03T21:16:35;2.08;;;0.40;;
32641;SDS011;19323;56.072;9.698;2022-09-03T21:19:13;0.65;;;0.50;;
32641;SDS011;19323;56.072;9.698;2022-09-03T21:21:51;0.73;;;0.73;;
32641;SDS011;19323;56.072;9.698;2022-09-03T21:24:46;0.68;;;0.38;;
32641;SDS011;19323;56.072;9.698;2022-09-03T21:27:18;0.90;;;0.50;;
32641;SDS011;19323;56.072;9.698;2022-09-03T21:30:08;1.63;;;0.40;;
32641;SDS011;19323;56.072;9.698;2022-09-03T21:35:29;2.92;;;0.47;;
32641;SDS011;19323;56.072;9.698;2022-09-03T21:38:10;1.00;;;0.30;;
32641;SDS011;19323;56.072;9.698;2022-09-03T21:40:41;0.98;;;0.40;;
32641;SDS011;19323;56.072;9.698;2022-09-03T21:46:08;1.45;;;0.22;;
32641;SDS011;19323;56.072;9.698;2022-09-03T21:51:23;2.00;;;0.30;;
32641;SDS011;19323;56.072;9.698;2022-09-03T21:54:16;1.38;;;0.45;;
32641;SDS011;19323;56.072;9.698;2022-09-03T22:02:22;0.20;;;0.20;;
32641;SDS011;19323;56.072;9.698;2022-09-03T22:04:50;0.40;;;0.20;;
32641;SDS011;19323;56.072;9.698;2022-09-03T22:10:21;0.38;;;0.38;;
32641;SDS011;19323;56.072;9.698;2022-09-03T22:15:41;0.75;;;0.20;;
32641;SDS011;19323;56.072;9.698;2022-09-03T22:18:11;0.40;;;0.10;;
32641;SDS011;19323;56.072;9.698;2022-09-03T22:21:18;0.65;;;0.38;;
32641;SDS011;19323;56.072;9.698;2022-09-03T22:26:30;1.20;;;0.30;;
32641;SDS011;19323;56.072;9.698;2022-09-03T22:29:12;2.05;;;0.30;;
32641;SDS011;19323;56.072;9.698;2022-09-03T22:40:23;1.45;;;0.20;;
32641;SDS011;19323;56.072;9.698;2022-09-03T22:43:03;0.63;;;0.40;;
32641;SDS011;19323;56.072;9.698;2022-09-03T22:51:36;0.75;;;0.30;;